sensor_id;sensor_type;location;lat;lon;timestamp;temperature;humidity
39493;DHT22;25176;51.060;3.720;2022-12-07T00:01:18;8.00;99.90
39493;DHT22;25176;51.060;3.720;2022-12-07T00:03:45;8.00;99.90
39493;DHT22;25176;51.060;3.720;2022-12-07T00:06:11;8.00;99.90
39493;DHT22;25176;51.060;3.720;2022-12-07T00:08:37;8.00;99.90
39493;DHT22;25176;51.060;3.720;2022-12-07T00:11:03;8.10;99.90
39493;DHT22;25176;51.060;3.720;2022-12-07T00:13:30;8.10;99.90
39493;DHT22;25176;51.060;3.720;2022-12-07T00:15:55;8.10;99.90
39493;DHT22;25176;51.060;3.720;2022-12-07T00:18:22;8.10;99.90
39493;DHT22;25176;51.060;3.720;2022-12-07T00:20:48;8.10;99.90
39493;DHT22;25176;51.060;3.720;2022-12-07T00:23:13;8.10;99.90
39493;DHT22;25176;51.060;3.720;2022-12-07T00:25:39;8.10;99.90
39493;DHT22;25176;51.060;3.720;2022-12-07T00:28:04;8.20;99.90
39493;DHT22;25176;51.060;3.720;2022-12-07T00:30:30;8.20;99.90
39493;DHT22;25176;51.060;3.720;2022-12-07T00:32:55;8.10;99.90
39493;DHT22;25176;51.060;3.720;2022-12-07T00:35:21;8.20;99.90
39493;DHT22;25176;51.060;3.720;2022-12-07T00:37:46;8.20;99.90
39493;DHT22;25176;51.060;3.720;2022-12-07T00:40:12;8.20;99.90
39493;DHT22;25176;51.060;3.720;2022-12-07T00:42:37;8.10;99.90
39493;DHT22;25176;51.060;3.720;2022-12-07T00:45:03;8.10;99.90
39493;DHT22;25176;51.060;3.720;2022-12-07T00:47:28;8.10;99.90
39493;DHT22;25176;51.060;3.720;2022-12-07T00:49:54;8.00;99.90
39493;DHT22;25176;51.060;3.720;2022-12-07T00:52:19;7.90;99.90
39493;DHT22;25176;51.060;3.720;2022-12-07T00:54:45;7.90;99.90
39493;DHT22;25176;51.060;3.720;2022-12-07T00:57:10;7.90;99.90
39493;DHT22;25176;51.060;3.720;2022-12-07T00:59:35;7.90;99.90
39493;DHT22;25176;51.060;3.720;2022-12-07T01:02:01;7.80;99.90
39493;DHT22;25176;51.060;3.720;2022-12-07T01:04:26;7.90;99.90
39493;DHT22;25176;51.060;3.720;2022-12-07T01:06:52;7.90;99.90
39493;DHT22;25176;51.060;3.720;2022-12-07T01:09:17;7.90;99.90
39493;DHT22;25176;51.060;3.720;2022-12-07T01:11:43;7.80;99.90
39493;DHT22;25176;51.060;3.720;2022-12-07T01:14:09;7.80;99.90
39493;DHT22;25176;51.060;3.720;2022-12-07T01:16:34;7.80;99.90
39493;DHT22;25176;51.060;3.720;2022-12-07T01:19:00;7.70;99.90
39493;DHT22;25176;51.060;3.720;2022-12-07T01:21:29;7.60;99.90
39493;DHT22;25176;51.060;3.720;2022-12-07T01:23:56;7.60;99.90
39493;DHT22;25176;51.060;3.720;2022-12-07T01:26:23;7.50;99.90
39493;DHT22;25176;51.060;3.720;2022-12-07T01:28:49;7.40;99.90
39493;DHT22;25176;51.060;3.720;2022-12-07T01:31:19;7.40;99.90
39493;DHT22;25176;51.060;3.720;2022-12-07T01:33:48;7.40;99.90
39493;DHT22;25176;51.060;3.720;2022-12-07T01:36:16;7.30;99.90
39493;DHT22;25176;51.060;3.720;2022-12-07T01:38:43;7.30;99.90
39493;DHT22;25176;51.060;3.720;2022-12-07T01:41:08;7.40;99.90
39493;DHT22;25176;51.060;3.720;2022-12-07T01:43:34;7.40;99.90
39493;DHT22;25176;51.060;3.720;2022-12-07T01:46:01;7.40;99.90
39493;DHT22;25176;51.060;3.720;2022-12-07T01:48:32;7.50;99.90
39493;DHT22;25176;51.060;3.720;2022-12-07T01:51:00;7.60;99.90
39493;DHT22;25176;51.060;3.720;2022-12-07T01:53:27;7.60;99.90
39493;DHT22;25176;51.060;3.720;2022-12-07T01:55:54;7.60;99.90
39493;DHT22;25176;51.060;3.720;2022-12-07T01:58:20;7.60;99.90
39493;DHT22;25176;51.060;3.720;2022-12-07T02:00:46;7.60;99.90
39493;DHT22;25176;51.060;3.720;2022-12-07T02:03:17;7.60;99.90
39493;DHT22;25176;51.060;3.720;2022-12-07T02:05:44;7.60;99.90
39493;DHT22;25176;51.060;3.720;2022-12-07T02:08:10;7.60;99.90
39493;DHT22;25176;51.060;3.720;2022-12-07T02:10:36;7.60;99.90
39493;DHT22;25176;51.060;3.720;2022-12-07T02:13:02;7.60;99.90
39493;DHT22;25176;51.060;3.720;2022-12-07T02:21:05;7.50;99.90
39493;DHT22;25176;51.060;3.720;2022-12-07T02:31:27;7.40;99.90
39493;DHT22;25176;51.060;3.720;2022-12-07T02:34:11;7.40;99.90
39493;DHT22;25176;51.060;3.720;2022-12-07T02:36:40;7.30;99.90
39493;DHT22;25176;51.060;3.720;2022-12-07T02:39:11;7.30;99.90
39493;DHT22;25176;51.060;3.720;2022-12-07T02:41:40;7.40;99.90
39493;DHT22;25176;51.060;3.720;2022-12-07T02:44:08;7.30;99.90
39493;DHT22;25176;51.060;3.720;2022-12-07T02:46:47;7.40;99.90
39493;DHT22;25176;51.060;3.720;2022-12-07T02:49:14;7.50;99.90
39493;DHT22;25176;51.060;3.720;2022-12-07T02:51:41;7.40;99.90
39493;DHT22;25176;51.060;3.720;2022-12-07T02:54:10;7.30;99.90
39493;DHT22;25176;51.060;3.720;2022-12-07T02:56:48;7.40;99.90
39493;DHT22;25176;51.060;3.720;2022-12-07T03:04:27;7.50;99.90
39493;DHT22;25176;51.060;3.720;2022-12-07T03:06:56;7.50;99.90
39493;DHT22;25176;51.060;3.720;2022-12-07T03:09:27;7.60;99.90
39493;DHT22;25176;51.060;3.720;2022-12-07T03:12:41;7.60;99.90
39493;DHT22;25176;51.060;3.720;2022-12-07T03:14:47;7.50;99.90
39493;DHT22;25176;51.060;3.720;2022-12-07T03:17:19;7.60;99.90
39493;DHT22;25176;51.060;3.720;2022-12-07T03:19:46;7.60;99.90
39493;DHT22;25176;51.060;3.720;2022-12-07T03:22:14;7.70;99.90
39493;DHT22;25176;51.060;3.720;2022-12-07T03:24:45;7.70;99.90
39493;DHT22;25176;51.060;3.720;2022-12-07T03:27:13;7.60;99.90
39493;DHT22;25176;51.060;3.720;2022-12-07T03:29:41;7.60;99.90
39493;DHT22;25176;51.060;3.720;2022-12-07T03:32:10;7.60;99.90
39493;DHT22;25176;51.060;3.720;2022-12-07T03:34:47;7.60;99.90
39493;DHT22;25176;51.060;3.720;2022-12-07T03:40:19;7.50;99.90
39493;DHT22;25176;51.060;3.720;2022-12-07T03:42:48;7.40;99.90
39493;DHT22;25176;51.060;3.720;2022-12-07T03:45:13;7.30;99.90
39493;DHT22;25176;51.060;3.720;2022-12-07T03:55:14;7.10;99.90
39493;DHT22;25176;51.060;3.720;2022-12-07T03:57:41;7.00;99.90
39493;DHT22;25176;51.060;3.720;2022-12-07T04:00:08;7.00;99.90
39493;DHT22;25176;51.060;3.720;2022-12-07T04:02:34;7.00;99.90
39493;DHT22;25176;51.060;3.720;2022-12-07T04:05:00;6.90;99.90
39493;DHT22;25176;51.060;3.720;2022-12-07T04:07:26;6.80;99.90
39493;DHT22;25176;51.060;3.720;2022-12-07T04:09:51;6.80;99.90
39493;DHT22;25176;51.060;3.720;2022-12-07T04:12:17;6.80;99.90
39493;DHT22;25176;51.060;3.720;2022-12-07T04:14:42;6.80;99.90
39493;DHT22;25176;51.060;3.720;2022-12-07T04:17:08;6.90;99.90
39493;DHT22;25176;51.060;3.720;2022-12-07T04:19:33;7.00;99.90
39493;DHT22;25176;51.060;3.720;2022-12-07T04:22:00;7.00;99.90
39493;DHT22;25176;51.060;3.720;2022-12-07T04:24:26;7.10;99.90
39493;DHT22;25176;51.060;3.720;2022-12-07T04:26:51;7.10;99.90
39493;DHT22;25176;51.060;3.720;2022-12-07T04:29:17;7.20;99.90
39493;DHT22;25176;51.060;3.720;2022-12-07T04:31:43;7.20;99.90
39493;DHT22;25176;51.060;3.720;2022-12-07T04:34:09;7.10;99.90
39493;DHT22;25176;51.060;3.720;2022-12-07T04:36:34;7.10;99.90
39493;DHT22;25176;51.060;3.720;2022-12-07T04:39:00;7.10;99.90
39493;DHT22;25176;51.060;3.720;2022-12-07T04:41:26;7.00;99.90
39493;DHT22;25176;51.060;3.720;2022-12-07T04:43:55;7.00;99.90
39493;DHT22;25176;51.060;3.720;2022-12-07T04:46:22;7.00;99.90
39493;DHT22;25176;51.060;3.720;2022-12-07T04:48:47;6.90;99.90
39493;DHT22;25176;51.060;3.720;2022-12-07T04:51:14;6.90;99.90
39493;DHT22;25176;51.060;3.720;2022-12-07T04:53:41;6.90;99.90
39493;DHT22;25176;51.060;3.720;2022-12-07T04:56:06;7.00;99.90
39493;DHT22;25176;51.060;3.720;2022-12-07T04:58:32;7.10;99.90
39493;DHT22;25176;51.060;3.720;2022-12-07T05:00:57;7.20;99.90
39493;DHT22;25176;51.060;3.720;2022-12-07T05:03:22;7.20;99.90
39493;DHT22;25176;51.060;3.720;2022-12-07T05:05:48;7.10;99.90
39493;DHT22;25176;51.060;3.720;2022-12-07T05:08:13;7.10;99.90
39493;DHT22;25176;51.060;3.720;2022-12-07T05:10:39;7.10;99.90
39493;DHT22;25176;51.060;3.720;2022-12-07T05:13:04;7.20;99.90
39493;DHT22;25176;51.060;3.720;2022-12-07T05:15:30;7.20;99.90
39493;DHT22;25176;51.060;3.720;2022-12-07T05:17:55;7.30;99.90
39493;DHT22;25176;51.060;3.720;2022-12-07T05:20:21;7.30;99.90
39493;DHT22;25176;51.060;3.720;2022-12-07T05:22:46;7.30;99.90
39493;DHT22;25176;51.060;3.720;2022-12-07T05:25:12;7.30;99.90
39493;DHT22;25176;51.060;3.720;2022-12-07T05:27:37;7.30;99.90
39493;DHT22;25176;51.060;3.720;2022-12-07T05:30:04;7.30;99.90
39493;DHT22;25176;51.060;3.720;2022-12-07T05:32:29;7.40;99.90
39493;DHT22;25176;51.060;3.720;2022-12-07T05:34:55;7.30;99.90
39493;DHT22;25176;51.060;3.720;2022-12-07T05:37:20;7.30;99.90
39493;DHT22;25176;51.060;3.720;2022-12-07T05:39:46;7.30;99.90
39493;DHT22;25176;51.060;3.720;2022-12-07T05:42:11;7.20;99.90
39493;DHT22;25176;51.060;3.720;2022-12-07T05:44:37;7.20;99.90
39493;DHT22;25176;51.060;3.720;2022-12-07T05:47:03;7.20;99.90
39493;DHT22;25176;51.060;3.720;2022-12-07T05:49:28;7.20;99.90
39493;DHT22;25176;51.060;3.720;2022-12-07T05:51:54;7.20;99.90
39493;DHT22;25176;51.060;3.720;2022-12-07T05:54:19;7.20;99.90
39493;DHT22;25176;51.060;3.720;2022-12-07T05:56:45;7.20;99.90
39493;DHT22;25176;51.060;3.720;2022-12-07T05:59:10;7.30;99.90
39493;DHT22;25176;51.060;3.720;2022-12-07T06:01:58;7.30;99.90
39493;DHT22;25176;51.060;3.720;2022-12-07T06:04:24;7.40;99.90
39493;DHT22;25176;51.060;3.720;2022-12-07T06:06:50;7.60;99.90
39493;DHT22;25176;51.060;3.720;2022-12-07T06:09:16;7.50;99.90
39493;DHT22;25176;51.060;3.720;2022-12-07T06:11:41;7.40;99.90
39493;DHT22;25176;51.060;3.720;2022-12-07T06:14:25;7.40;99.90
39493;DHT22;25176;51.060;3.720;2022-12-07T06:16:51;7.40;99.90
39493;DHT22;25176;51.060;3.720;2022-12-07T06:19:16;7.40;99.90
39493;DHT22;25176;51.060;3.720;2022-12-07T06:21:42;7.40;99.90
39493;DHT22;25176;51.060;3.720;2022-12-07T06:24:09;7.50;99.90
39493;DHT22;25176;51.060;3.720;2022-12-07T06:26:35;7.40;99.90
39493;DHT22;25176;51.060;3.720;2022-12-07T06:29:00;7.30;99.90
39493;DHT22;25176;51.060;3.720;2022-12-07T06:31:26;7.20;99.90
39493;DHT22;25176;51.060;3.720;2022-12-07T06:33:51;7.20;99.90
39493;DHT22;25176;51.060;3.720;2022-12-07T06:36:21;7.10;99.90
39493;DHT22;25176;51.060;3.720;2022-12-07T06:38:47;7.10;99.90
39493;DHT22;25176;51.060;3.720;2022-12-07T06:41:12;7.10;99.90
39493;DHT22;25176;51.060;3.720;2022-12-07T06:43:38;7.10;99.90
39493;DHT22;25176;51.060;3.720;2022-12-07T06:46:03;7.10;99.90
39493;DHT22;25176;51.060;3.720;2022-12-07T06:48:29;7.20;99.90
39493;DHT22;25176;51.060;3.720;2022-12-07T06:50:54;7.20;99.90
39493;DHT22;25176;51.060;3.720;2022-12-07T06:53:20;7.10;99.90
39493;DHT22;25176;51.060;3.720;2022-12-07T06:55:46;7.10;99.90
39493;DHT22;25176;51.060;3.720;2022-12-07T06:58:11;7.10;99.90
39493;DHT22;25176;51.060;3.720;2022-12-07T07:00:37;7.20;99.90
39493;DHT22;25176;51.060;3.720;2022-12-07T07:03:02;7.20;99.90
39493;DHT22;25176;51.060;3.720;2022-12-07T07:05:28;7.20;99.90
39493;DHT22;25176;51.060;3.720;2022-12-07T07:07:53;7.20;99.90
39493;DHT22;25176;51.060;3.720;2022-12-07T07:10:19;7.20;99.90
39493;DHT22;25176;51.060;3.720;2022-12-07T07:12:44;7.30;99.90
39493;DHT22;25176;51.060;3.720;2022-12-07T07:15:10;7.40;99.90
39493;DHT22;25176;51.060;3.720;2022-12-07T07:17:36;7.40;99.90
39493;DHT22;25176;51.060;3.720;2022-12-07T07:20:02;7.30;99.90
39493;DHT22;25176;51.060;3.720;2022-12-07T07:22:28;7.30;99.90
39493;DHT22;25176;51.060;3.720;2022-12-07T07:24:55;7.30;99.90
39493;DHT22;25176;51.060;3.720;2022-12-07T07:27:38;7.40;99.90
39493;DHT22;25176;51.060;3.720;2022-12-07T07:30:28;7.40;99.90
39493;DHT22;25176;51.060;3.720;2022-12-07T07:33:02;7.50;99.90
39493;DHT22;25176;51.060;3.720;2022-12-07T07:35:48;7.50;99.90
39493;DHT22;25176;51.060;3.720;2022-12-07T07:41:32;7.50;99.90
39493;DHT22;25176;51.060;3.720;2022-12-07T07:44:01;7.60;99.90
39493;DHT22;25176;51.060;3.720;2022-12-07T07:46:33;7.70;99.90
39493;DHT22;25176;51.060;3.720;2022-12-07T07:49:24;7.60;99.90
39493;DHT22;25176;51.060;3.720;2022-12-07T07:52:09;7.80;99.90
39493;DHT22;25176;51.060;3.720;2022-12-07T07:54:50;7.80;99.90
39493;DHT22;25176;51.060;3.720;2022-12-07T07:57:44;7.80;99.90
39493;DHT22;25176;51.060;3.720;2022-12-07T08:00:22;7.70;99.90
39493;DHT22;25176;51.060;3.720;2022-12-07T08:09:07;7.60;99.90
39493;DHT22;25176;51.060;3.720;2022-12-07T08:12:01;7.80;99.90
39493;DHT22;25176;51.060;3.720;2022-12-07T08:14:57;7.50;99.90
39493;DHT22;25176;51.060;3.720;2022-12-07T08:17:43;7.60;99.90
39493;DHT22;25176;51.060;3.720;2022-12-07T08:20:37;7.70;99.90
39493;DHT22;25176;51.060;3.720;2022-12-07T08:23:39;7.70;99.90
39493;DHT22;25176;51.060;3.720;2022-12-07T08:27:04;7.60;99.90
39493;DHT22;25176;51.060;3.720;2022-12-07T08:29:45;7.80;99.90
39493;DHT22;25176;51.060;3.720;2022-12-07T08:32:38;7.80;99.90
39493;DHT22;25176;51.060;3.720;2022-12-07T08:35:11;7.90;99.90
39493;DHT22;25176;51.060;3.720;2022-12-07T08:37:41;7.90;99.90
39493;DHT22;25176;51.060;3.720;2022-12-07T08:40:11;8.10;99.90
39493;DHT22;25176;51.060;3.720;2022-12-07T08:42:50;8.20;99.90
39493;DHT22;25176;51.060;3.720;2022-12-07T08:45:35;8.20;99.90
39493;DHT22;25176;51.060;3.720;2022-12-07T08:48:26;8.00;99.90
39493;DHT22;25176;51.060;3.720;2022-12-07T08:50:57;7.90;99.90
39493;DHT22;25176;51.060;3.720;2022-12-07T08:53:39;8.00;99.90
39493;DHT22;25176;51.060;3.720;2022-12-07T08:56:13;8.10;99.90
39493;DHT22;25176;51.060;3.720;2022-12-07T08:58:49;8.30;99.90
39493;DHT22;25176;51.060;3.720;2022-12-07T09:01:21;8.50;99.90
39493;DHT22;25176;51.060;3.720;2022-12-07T09:03:49;8.70;99.90
39493;DHT22;25176;51.060;3.720;2022-12-07T09:06:14;8.80;99.90
39493;DHT22;25176;51.060;3.720;2022-12-07T09:08:41;8.90;99.90
39493;DHT22;25176;51.060;3.720;2022-12-07T09:11:08;8.90;99.90
39493;DHT22;25176;51.060;3.720;2022-12-07T09:13:34;8.90;99.90
39493;DHT22;25176;51.060;3.720;2022-12-07T09:16:01;9.00;99.90
39493;DHT22;25176;51.060;3.720;2022-12-07T09:18:30;9.10;99.90
39493;DHT22;25176;51.060;3.720;2022-12-07T09:20:56;9.30;99.90
39493;DHT22;25176;51.060;3.720;2022-12-07T09:23:23;9.40;99.90
39493;DHT22;25176;51.060;3.720;2022-12-07T09:26:00;9.40;99.90
39493;DHT22;25176;51.060;3.720;2022-12-07T09:28:34;9.50;99.90
39493;DHT22;25176;51.060;3.720;2022-12-07T09:31:03;9.50;99.90
39493;DHT22;25176;51.060;3.720;2022-12-07T09:33:29;9.20;99.90
39493;DHT22;25176;51.060;3.720;2022-12-07T09:35:55;9.10;99.90
39493;DHT22;25176;51.060;3.720;2022-12-07T09:38:24;9.20;99.90
39493;DHT22;25176;51.060;3.720;2022-12-07T09:41:03;9.00;99.90
39493;DHT22;25176;51.060;3.720;2022-12-07T09:43:35;8.80;99.90
39493;DHT22;25176;51.060;3.720;2022-12-07T09:46:08;8.80;99.90
39493;DHT22;25176;51.060;3.720;2022-12-07T09:48:38;8.80;99.90
39493;DHT22;25176;51.060;3.720;2022-12-07T09:51:25;8.90;99.90
39493;DHT22;25176;51.060;3.720;2022-12-07T09:53:54;8.90;99.90
39493;DHT22;25176;51.060;3.720;2022-12-07T09:56:24;8.70;99.90
39493;DHT22;25176;51.060;3.720;2022-12-07T09:59:00;8.50;99.90
39493;DHT22;25176;51.060;3.720;2022-12-07T10:01:32;8.50;99.90
39493;DHT22;25176;51.060;3.720;2022-12-07T10:04:14;8.60;99.90
39493;DHT22;25176;51.060;3.720;2022-12-07T10:06:42;8.70;99.90
39493;DHT22;25176;51.060;3.720;2022-12-07T10:09:34;8.60;99.90
39493;DHT22;25176;51.060;3.720;2022-12-07T10:12:03;8.70;99.90
39493;DHT22;25176;51.060;3.720;2022-12-07T10:14:30;8.60;99.90
39493;DHT22;25176;51.060;3.720;2022-12-07T10:16:55;8.60;99.90
39493;DHT22;25176;51.060;3.720;2022-12-07T10:24:38;9.10;99.90
39493;DHT22;25176;51.060;3.720;2022-12-07T10:27:22;9.40;99.90
39493;DHT22;25176;51.060;3.720;2022-12-07T10:30:07;9.70;99.90
39493;DHT22;25176;51.060;3.720;2022-12-07T10:32:34;9.70;99.90
39493;DHT22;25176;51.060;3.720;2022-12-07T10:35:26;9.60;99.90
39493;DHT22;25176;51.060;3.720;2022-12-07T10:37:53;9.60;99.90
39493;DHT22;25176;51.060;3.720;2022-12-07T10:40:27;9.70;99.90
39493;DHT22;25176;51.060;3.720;2022-12-07T10:46:26;10.00;99.90
39493;DHT22;25176;51.060;3.720;2022-12-07T10:51:35;10.30;99.90
39493;DHT22;25176;51.060;3.720;2022-12-07T10:54:19;10.50;99.90
39493;DHT22;25176;51.060;3.720;2022-12-07T10:59:42;10.10;99.90
39493;DHT22;25176;51.060;3.720;2022-12-07T11:02:21;9.80;99.90
39493;DHT22;25176;51.060;3.720;2022-12-07T11:29:54;9.60;99.90
39493;DHT22;25176;51.060;3.720;2022-12-07T11:35:08;9.80;99.90
39493;DHT22;25176;51.060;3.720;2022-12-07T11:37:36;10.00;99.90
39493;DHT22;25176;51.060;3.720;2022-12-07T11:45:42;10.00;99.90
39493;DHT22;25176;51.060;3.720;2022-12-07T11:50:37;10.00;99.90
39493;DHT22;25176;51.060;3.720;2022-12-07T11:53:10;10.20;99.90
39493;DHT22;25176;51.060;3.720;2022-12-07T11:55:40;10.40;99.90
39493;DHT22;25176;51.060;3.720;2022-12-07T12:00:51;10.60;99.90
39493;DHT22;25176;51.060;3.720;2022-12-07T12:03:24;10.80;99.90
39493;DHT22;25176;51.060;3.720;2022-12-07T12:05:55;11.00;99.90
39493;DHT22;25176;51.060;3.720;2022-12-07T12:08:23;11.20;99.90
39493;DHT22;25176;51.060;3.720;2022-12-07T12:10:56;11.10;99.90
39493;DHT22;25176;51.060;3.720;2022-12-07T12:14:09;11.20;99.90
39493;DHT22;25176;51.060;3.720;2022-12-07T12:16:35;11.10;99.90
39493;DHT22;25176;51.060;3.720;2022-12-07T12:21:48;10.60;99.90
39493;DHT22;25176;51.060;3.720;2022-12-07T12:24:22;10.40;99.90
39493;DHT22;25176;51.060;3.720;2022-12-07T12:27:00;10.40;99.90
39493;DHT22;25176;51.060;3.720;2022-12-07T12:29:32;10.20;99.90
39493;DHT22;25176;51.060;3.720;2022-12-07T12:32:12;10.20;99.90
39493;DHT22;25176;51.060;3.720;2022-12-07T12:34:39;10.20;99.90
39493;DHT22;25176;51.060;3.720;2022-12-07T12:37:40;10.20;99.90
39493;DHT22;25176;51.060;3.720;2022-12-07T12:42:48;9.80;99.90
39493;DHT22;25176;51.060;3.720;2022-12-07T12:45:18;9.80;99.90
39493;DHT22;25176;51.060;3.720;2022-12-07T12:47:51;10.00;99.90
39493;DHT22;25176;51.060;3.720;2022-12-07T12:50:34;10.30;99.90
39493;DHT22;25176;51.060;3.720;2022-12-07T12:56:04;10.30;99.90
39493;DHT22;25176;51.060;3.720;2022-12-07T13:00:46;10.50;99.90
39493;DHT22;25176;51.060;3.720;2022-12-07T13:08:48;10.50;99.90
39493;DHT22;25176;51.060;3.720;2022-12-07T13:11:17;10.70;99.90
39493;DHT22;25176;51.060;3.720;2022-12-07T13:13:43;10.50;99.90
39493;DHT22;25176;51.060;3.720;2022-12-07T13:21:00;10.40;99.90
39493;DHT22;25176;51.060;3.720;2022-12-07T13:23:28;10.40;99.90
39493;DHT22;25176;51.060;3.720;2022-12-07T13:25:55;10.30;99.90
39493;DHT22;25176;51.060;3.720;2022-12-07T13:28:23;10.40;99.90
39493;DHT22;25176;51.060;3.720;2022-12-07T13:31:00;10.40;99.90
39493;DHT22;25176;51.060;3.720;2022-12-07T13:33:28;10.40;99.90
39493;DHT22;25176;51.060;3.720;2022-12-07T13:35:54;10.30;99.90
39493;DHT22;25176;51.060;3.720;2022-12-07T13:46:17;10.00;99.90
39493;DHT22;25176;51.060;3.720;2022-12-07T13:48:44;9.80;99.90
39493;DHT22;25176;51.060;3.720;2022-12-07T13:51:21;10.10;99.90
39493;DHT22;25176;51.060;3.720;2022-12-07T13:53:50;10.10;99.90
39493;DHT22;25176;51.060;3.720;2022-12-07T13:56:16;10.30;99.90
39493;DHT22;25176;51.060;3.720;2022-12-07T13:58:42;10.30;99.90
39493;DHT22;25176;51.060;3.720;2022-12-07T14:01:08;10.20;99.90
39493;DHT22;25176;51.060;3.720;2022-12-07T14:03:34;10.20;99.90
39493;DHT22;25176;51.060;3.720;2022-12-07T14:08:29;10.20;99.90
39493;DHT22;25176;51.060;3.720;2022-12-07T14:10:55;10.30;99.90
39493;DHT22;25176;51.060;3.720;2022-12-07T14:13:34;10.30;99.90
39493;DHT22;25176;51.060;3.720;2022-12-07T14:16:01;10.30;99.90
39493;DHT22;25176;51.060;3.720;2022-12-07T14:18:35;10.00;99.90
39493;DHT22;25176;51.060;3.720;2022-12-07T14:21:03;10.00;99.90
39493;DHT22;25176;51.060;3.720;2022-12-07T14:23:28;9.90;99.90
39493;DHT22;25176;51.060;3.720;2022-12-07T14:25:54;10.00;99.90
39493;DHT22;25176;51.060;3.720;2022-12-07T14:28:31;9.90;99.90
39493;DHT22;25176;51.060;3.720;2022-12-07T14:30:57;9.50;99.90
39493;DHT22;25176;51.060;3.720;2022-12-07T14:33:23;9.30;99.90
39493;DHT22;25176;51.060;3.720;2022-12-07T14:35:49;9.30;99.90
39493;DHT22;25176;51.060;3.720;2022-12-07T14:38:15;9.20;99.90
39493;DHT22;25176;51.060;3.720;2022-12-07T14:40:40;9.30;99.90
39493;DHT22;25176;51.060;3.720;2022-12-07T14:43:08;9.30;99.90
39493;DHT22;25176;51.060;3.720;2022-12-07T14:45:34;9.20;99.90
39493;DHT22;25176;51.060;3.720;2022-12-07T14:48:00;9.20;99.90
39493;DHT22;25176;51.060;3.720;2022-12-07T14:50:25;9.10;99.90
39493;DHT22;25176;51.060;3.720;2022-12-07T14:52:55;9.00;99.90
39493;DHT22;25176;51.060;3.720;2022-12-07T14:55:28;9.00;99.90
39493;DHT22;25176;51.060;3.720;2022-12-07T14:57:54;9.00;99.90
39493;DHT22;25176;51.060;3.720;2022-12-07T15:00:19;9.00;99.90
39493;DHT22;25176;51.060;3.720;2022-12-07T15:02:48;8.80;99.90
39493;DHT22;25176;51.060;3.720;2022-12-07T15:05:14;8.70;99.90
39493;DHT22;25176;51.060;3.720;2022-12-07T15:07:40;8.80;99.90
39493;DHT22;25176;51.060;3.720;2022-12-07T15:10:15;9.00;99.90
39493;DHT22;25176;51.060;3.720;2022-12-07T15:12:43;9.00;99.90
39493;DHT22;25176;51.060;3.720;2022-12-07T15:15:08;9.10;99.90
39493;DHT22;25176;51.060;3.720;2022-12-07T15:17:34;9.20;99.90
39493;DHT22;25176;51.060;3.720;2022-12-07T15:20:00;9.30;99.90
39493;DHT22;25176;51.060;3.720;2022-12-07T15:22:25;9.30;99.90
39493;DHT22;25176;51.060;3.720;2022-12-07T15:24:51;9.30;99.90
39493;DHT22;25176;51.060;3.720;2022-12-07T15:27:16;9.10;99.90
39493;DHT22;25176;51.060;3.720;2022-12-07T15:29:42;9.10;99.90
39493;DHT22;25176;51.060;3.720;2022-12-07T15:32:07;9.10;99.90
39493;DHT22;25176;51.060;3.720;2022-12-07T15:34:32;9.10;99.90
39493;DHT22;25176;51.060;3.720;2022-12-07T15:36:58;8.90;99.90
39493;DHT22;25176;51.060;3.720;2022-12-07T15:39:23;8.90;99.90
39493;DHT22;25176;51.060;3.720;2022-12-07T15:41:49;8.90;99.90
39493;DHT22;25176;51.060;3.720;2022-12-07T15:44:15;8.90;99.90
39493;DHT22;25176;51.060;3.720;2022-12-07T15:46:59;8.80;99.90
39493;DHT22;25176;51.060;3.720;2022-12-07T15:49:25;8.70;99.90
39493;DHT22;25176;51.060;3.720;2022-12-07T15:51:51;8.70;99.90
39493;DHT22;25176;51.060;3.720;2022-12-07T15:54:20;8.70;99.90
39493;DHT22;25176;51.060;3.720;2022-12-07T15:56:46;8.60;99.90
39493;DHT22;25176;51.060;3.720;2022-12-07T15:59:12;8.60;99.90
39493;DHT22;25176;51.060;3.720;2022-12-07T16:01:37;8.60;99.90
39493;DHT22;25176;51.060;3.720;2022-12-07T16:04:03;8.60;99.90
39493;DHT22;25176;51.060;3.720;2022-12-07T16:06:28;8.50;99.90
39493;DHT22;25176;51.060;3.720;2022-12-07T16:08:54;8.50;99.90
39493;DHT22;25176;51.060;3.720;2022-12-07T16:11:19;8.50;99.90
39493;DHT22;25176;51.060;3.720;2022-12-07T16:13:45;8.40;99.90
39493;DHT22;25176;51.060;3.720;2022-12-07T16:16:12;8.40;99.90
39493;DHT22;25176;51.060;3.720;2022-12-07T16:18:38;8.40;99.90
39493;DHT22;25176;51.060;3.720;2022-12-07T16:21:04;8.40;99.90
39493;DHT22;25176;51.060;3.720;2022-12-07T16:23:30;8.40;99.90
39493;DHT22;25176;51.060;3.720;2022-12-07T16:26:03;8.40;99.90
39493;DHT22;25176;51.060;3.720;2022-12-07T16:28:28;8.30;99.90
39493;DHT22;25176;51.060;3.720;2022-12-07T16:31:01;8.30;99.90
39493;DHT22;25176;51.060;3.720;2022-12-07T16:33:27;8.30;99.90
39493;DHT22;25176;51.060;3.720;2022-12-07T16:35:52;8.30;99.90
39493;DHT22;25176;51.060;3.720;2022-12-07T16:38:18;8.40;99.90
39493;DHT22;25176;51.060;3.720;2022-12-07T16:40:43;8.40;99.90
39493;DHT22;25176;51.060;3.720;2022-12-07T16:43:10;8.40;99.90
39493;DHT22;25176;51.060;3.720;2022-12-07T16:45:36;8.40;99.90
39493;DHT22;25176;51.060;3.720;2022-12-07T16:48:02;8.40;99.90
39493;DHT22;25176;51.060;3.720;2022-12-07T16:50:27;8.50;99.90
39493;DHT22;25176;51.060;3.720;2022-12-07T16:52:52;8.60;99.90
39493;DHT22;25176;51.060;3.720;2022-12-07T16:55:18;8.70;99.90
39493;DHT22;25176;51.060;3.720;2022-12-07T16:57:43;8.50;99.90
39493;DHT22;25176;51.060;3.720;2022-12-07T17:00:09;8.50;99.90
39493;DHT22;25176;51.060;3.720;2022-12-07T17:02:35;8.50;99.90
39493;DHT22;25176;51.060;3.720;2022-12-07T17:05:01;8.50;99.90
39493;DHT22;25176;51.060;3.720;2022-12-07T17:07:26;8.50;99.90
39493;DHT22;25176;51.060;3.720;2022-12-07T17:09:52;8.50;99.90
39493;DHT22;25176;51.060;3.720;2022-12-07T17:12:17;8.50;99.90
39493;DHT22;25176;51.060;3.720;2022-12-07T17:14:43;8.50;99.90
39493;DHT22;25176;51.060;3.720;2022-12-07T17:17:27;8.50;99.90
39493;DHT22;25176;51.060;3.720;2022-12-07T17:19:53;8.50;99.90
39493;DHT22;25176;51.060;3.720;2022-12-07T17:22:18;8.60;99.90
39493;DHT22;25176;51.060;3.720;2022-12-07T17:24:44;8.50;99.90
39493;DHT22;25176;51.060;3.720;2022-12-07T17:27:09;8.40;99.90
39493;DHT22;25176;51.060;3.720;2022-12-07T17:29:35;8.40;99.90
39493;DHT22;25176;51.060;3.720;2022-12-07T17:32:00;8.30;99.90
39493;DHT22;25176;51.060;3.720;2022-12-07T17:34:26;8.10;99.90
39493;DHT22;25176;51.060;3.720;2022-12-07T17:36:51;8.10;99.90
39493;DHT22;25176;51.060;3.720;2022-12-07T17:39:17;8.00;99.90
39493;DHT22;25176;51.060;3.720;2022-12-07T17:41:43;8.00;99.90
39493;DHT22;25176;51.060;3.720;2022-12-07T17:44:27;7.90;99.90
39493;DHT22;25176;51.060;3.720;2022-12-07T17:46:53;7.90;99.90
39493;DHT22;25176;51.060;3.720;2022-12-07T17:49:26;7.80;99.90
39493;DHT22;25176;51.060;3.720;2022-12-07T17:51:52;7.90;99.90
39493;DHT22;25176;51.060;3.720;2022-12-07T17:54:36;7.80;99.90
39493;DHT22;25176;51.060;3.720;2022-12-07T17:57:02;7.70;99.90
39493;DHT22;25176;51.060;3.720;2022-12-07T17:59:27;7.70;99.90
39493;DHT22;25176;51.060;3.720;2022-12-07T18:01:53;7.60;99.90